createdAt,value
2023-02-28T00:00:16.574Z,97887.69
2023-02-28T00:02:53.778Z,97885.66
2023-02-28T00:05:23.016Z,97874.13
2023-02-28T00:13:54.174Z,97890.88
2023-02-28T00:14:05.140Z,97890.47
2023-02-28T00:24:07.258Z,97893.81
2023-02-28T00:26:42.788Z,97893.91
2023-02-28T00:29:24.996Z,97902.63
2023-02-28T00:32:18.533Z,97902.41
2023-02-28T00:35:18.771Z,97896.97
2023-02-28T00:41:40.647Z,97891.09
2023-02-28T00:44:32.118Z,97886.03
2023-02-28T00:47:00.164Z,97885.44
2023-02-28T00:55:04.375Z,97892.34
2023-02-28T00:57:31.227Z,97886.31
2023-02-28T00:59:58.079Z,97872.50
2023-02-28T01:03:28.536Z,97867.75
2023-02-28T01:06:15.396Z,97875.50
2023-02-28T01:15:29.985Z,97859.06
2023-02-28T01:17:57.089Z,97857.59
2023-02-28T01:20:52.860Z,97850.50
2023-02-28T01:26:15.255Z,97853.03
2023-02-28T01:27:54.428Z,97871.34
2023-02-28T01:30:43.303Z,97870.59
2023-02-28T01:44:22.518Z,97868.81
2023-02-28T01:47:27.228Z,97863.50
2023-02-28T01:53:33.553Z,97845.97
2023-02-28T01:56:04.443Z,97848.19
2023-02-28T01:58:32.258Z,97881.06
2023-02-28T02:05:47.275Z,97897.59
2023-02-28T02:15:29.438Z,97896.69
2023-02-28T02:18:15.621Z,97901.19
2023-02-28T02:24:48.504Z,97912.06
2023-02-28T02:27:35.430Z,97920.38
2023-02-28T02:30:39.427Z,97923.13
2023-02-28T02:38:27.672Z,97928.53
2023-02-28T02:41:13.016Z,97929.56
2023-02-28T02:44:02.382Z,97927.78
2023-02-28T02:54:01.647Z,97937.56
2023-02-28T02:59:26.787Z,97932.06
2023-02-28T03:05:20.448Z,97937.69
2023-02-28T03:11:02.617Z,97942.03
2023-02-28T03:17:21.817Z,97939.75
2023-02-28T03:20:16.087Z,97947.25
2023-02-28T03:41:01.001Z,97904.31
2023-02-28T03:43:33.234Z,97908.59
2023-02-28T03:46:04.364Z,97902.31
2023-02-28T03:49:41.698Z,97903.41
2023-02-28T03:52:09.466Z,97918.53
2023-02-28T03:54:45.162Z,97914.00
2023-02-28T04:05:05.882Z,97919.25
2023-02-28T04:11:25.126Z,97942.59
2023-02-28T04:18:51.335Z,97934.22
2023-02-28T04:21:27.432Z,97940.59
2023-02-28T04:24:21.262Z,97930.31
2023-02-28T04:27:02.106Z,97930.31
2023-02-28T04:30:08.121Z,97931.25
2023-02-28T04:35:37.170Z,97929.75
2023-02-28T04:39:01.293Z,97927.72
2023-02-28T04:44:34.073Z,97926.47
2023-02-28T04:47:05.106Z,97926.41
2023-02-28T04:49:33.371Z,97927.53
2023-02-28T04:52:00.549Z,97923.94
2023-02-28T04:54:27.717Z,97930.84
2023-02-28T04:57:06.633Z,97926.28
2023-02-28T04:59:45.930Z,97928.34
2023-02-28T05:05:54.081Z,97935.72
2023-02-28T05:08:20.806Z,97937.69
2023-02-28T05:14:30.980Z,97935.44
2023-02-28T05:20:24.194Z,97920.97
2023-02-28T05:23:07.833Z,97929.38
2023-02-28T05:25:38.273Z,97931.69
2023-02-28T05:28:26.859Z,97945.88
2023-02-28T05:30:53.720Z,97939.88
2023-02-28T05:36:34.633Z,97947.91
2023-02-28T05:39:01.848Z,97955.47
2023-02-28T05:41:51.815Z,97960.41
2023-02-28T05:45:00.364Z,97959.28
2023-02-28T05:47:36.853Z,97949.28
2023-02-28T05:50:05.033Z,97959.13
2023-02-28T05:52:35.161Z,97959.38
2023-02-28T05:55:30.794Z,97948.72
2023-02-28T05:59:03.933Z,97963.19
2023-02-28T06:01:26.240Z,97964.97
2023-02-28T06:03:57.530Z,97963.41
2023-02-28T06:06:24.816Z,97966.09
2023-02-28T06:11:54.559Z,97983.06
2023-02-28T06:28:47.326Z,97989.88
2023-02-28T06:31:52.899Z,98002.44
2023-02-28T06:35:33.108Z,97994.22
2023-02-28T06:40:59.804Z,97995.69
2023-02-28T06:43:30.805Z,97996.88
2023-02-28T06:59:40.859Z,97995.66
2023-02-28T07:02:11.351Z,97991.59
2023-02-28T07:04:42.005Z,97995.03
2023-02-28T07:07:17.444Z,97988.78
2023-02-28T07:09:44.152Z,97983.09
2023-02-28T07:12:20.156Z,97987.94
2023-02-28T07:14:50.097Z,97987.09
2023-02-28T07:17:19.915Z,97988.09
2023-02-28T07:19:46.825Z,97985.16
2023-02-28T07:22:20.148Z,97984.66
2023-02-28T07:24:50.310Z,97990.53
2023-02-28T07:27:26.855Z,97987.06
2023-02-28T07:29:58.496Z,97996.06
2023-02-28T07:32:25.781Z,97994.09
2023-02-28T07:34:55.768Z,97996.81
2023-02-28T07:37:26.333Z,97981.72
2023-02-28T07:39:58.842Z,97991.50
2023-02-28T07:42:28.924Z,97986.38
2023-02-28T07:45:00.118Z,97997.09
2023-02-28T07:47:30.439Z,98007.06
2023-02-28T07:50:02.124Z,97996.25
2023-02-28T07:52:29.067Z,97995.88
2023-02-28T07:54:56.325Z,98013.25
2023-02-28T07:57:25.550Z,98021.34
2023-02-28T07:59:54.590Z,98013.78
2023-02-28T08:02:24.462Z,98019.78
2023-02-28T08:04:51.897Z,98023.53
2023-02-28T08:07:29.914Z,98021.94
2023-02-28T08:10:37.563Z,98022.06
2023-02-28T08:13:04.907Z,98019.97
2023-02-28T08:15:32.230Z,98014.28
2023-02-28T08:18:01.113Z,98015.97
2023-02-28T08:20:30.729Z,98021.00
2023-02-28T08:23:07.024Z,98017.63
2023-02-28T08:25:37.575Z,98028.31
2023-02-28T08:32:02.462Z,98017.16
2023-02-28T08:38:35.800Z,98030.41
2023-02-28T08:41:25.669Z,98022.53
2023-02-28T09:05:16.243Z,98030.13
2023-02-28T09:07:50.273Z,98041.31
2023-02-28T09:10:17.919Z,98047.50
2023-02-28T09:13:09.538Z,98043.94
2023-02-28T09:15:39.455Z,98054.41
2023-02-28T09:18:06.392Z,98044.56
2023-02-28T09:20:36.538Z,98044.38
2023-02-28T09:23:03.643Z,98048.94
2023-02-28T09:25:31.116Z,98062.28
2023-02-28T09:27:58.375Z,98057.41
2023-02-28T09:30:28.495Z,98056.13
2023-02-28T09:32:56.390Z,98056.13
2023-02-28T09:35:42.143Z,98063.88
2023-02-28T09:49:10.209Z,98062.38
2023-02-28T09:51:55.455Z,98059.78
2023-02-28T09:54:25.228Z,98043.63
2023-02-28T09:57:00.059Z,98032.94
2023-02-28T10:00:01.957Z,98039.59
2023-02-28T10:02:50.645Z,98040.53
2023-02-28T10:05:30.333Z,98033.81
2023-02-28T10:08:43.145Z,98043.16
2023-02-28T10:11:16.191Z,98028.78
2023-02-28T10:14:08.268Z,98037.47
2023-02-28T10:16:42.899Z,98015.56
2023-02-28T10:19:19.414Z,98037.38
2023-02-28T10:21:53.881Z,98032.56
2023-02-28T10:24:49.997Z,98035.56
2023-02-28T10:27:19.903Z,98027.19
2023-02-28T10:29:50.554Z,98035.06
2023-02-28T10:32:22.930Z,98036.72
2023-02-28T10:35:17.539Z,98039.13
2023-02-28T10:37:53.299Z,98034.63
2023-02-28T10:40:35.632Z,98040.28
2023-02-28T10:43:05.556Z,98033.53
2023-02-28T10:45:38.357Z,98035.84
2023-02-28T10:48:28.228Z,98039.59
2023-02-28T10:50:59.527Z,98031.50
2023-02-28T10:53:36.201Z,98035.25
2023-02-28T10:56:17.782Z,98028.97
2023-02-28T10:58:58.155Z,98029.94
2023-02-28T11:01:53.981Z,98015.00
2023-02-28T11:04:44.976Z,98008.09
2023-02-28T11:07:27.602Z,98006.88
2023-02-28T11:10:02.434Z,97999.69
2023-02-28T11:12:46.914Z,98005.28
2023-02-28T11:15:36.047Z,98000.75
2023-02-28T11:18:27.257Z,97997.22
2023-02-28T11:20:57.385Z,98002.53
2023-02-28T11:23:41.119Z,97994.69
2023-02-28T11:26:10.887Z,98010.72
2023-02-28T11:28:42.536Z,98008.38
2023-02-28T11:31:18.463Z,98017.47
2023-02-28T11:33:51.504Z,98001.94
2023-02-28T11:36:28.787Z,97996.31
2023-02-28T11:39:26.703Z,97992.22
2023-02-28T11:41:59.668Z,97992.34
2023-02-28T11:44:59.202Z,97980.28
2023-02-28T11:47:41.345Z,97983.63
2023-02-28T11:50:25.863Z,97981.88
2023-02-28T11:53:20.626Z,97976.00
2023-02-28T11:56:14.325Z,97980.47
2023-02-28T11:58:45.007Z,97977.31
2023-02-28T12:03:21.063Z,97975.34
2023-02-28T12:05:59.725Z,97966.75
2023-02-28T12:12:39.663Z,97986.09
2023-02-28T12:15:26.470Z,97983.56
2023-02-28T12:18:19.495Z,97984.41
2023-02-28T12:21:24.095Z,97984.66
2023-02-28T12:25:01.818Z,97991.56
2023-02-28T12:28:38.888Z,97990.41
2023-02-28T12:35:44.807Z,97982.09
2023-02-28T12:38:38.672Z,97967.19
2023-02-28T12:42:00.649Z,97981.00
2023-02-28T12:45:21.511Z,97976.00
2023-02-28T12:48:22.069Z,97981.44
2023-02-28T12:52:34.465Z,97987.69
2023-02-28T13:12:15.540Z,97992.44
2023-02-28T13:18:48.534Z,97984.66
2023-02-28T13:47:06.041Z,97989.84
2023-02-28T13:58:26.145Z,97993.28
2023-02-28T13:58:50.055Z,97995.72
2023-02-28T14:03:05.435Z,97992.34
2023-02-28T14:04:52.672Z,97977.94
2023-02-28T14:07:56.747Z,97976.28
2023-02-28T14:10:34.223Z,97980.25
2023-02-28T14:13:15.989Z,97982.97
2023-02-28T14:16:05.753Z,97983.19
2023-02-28T14:22:07.664Z,97992.53
2023-02-28T14:24:46.627Z,97980.03
2023-02-28T14:27:51.470Z,97982.00
2023-02-28T14:30:59.860Z,97985.97
2023-02-28T14:33:52.079Z,97976.19
2023-02-28T14:36:26.634Z,98000.19
2023-02-28T14:39:21.823Z,98008.03
2023-02-28T14:42:35.388Z,98007.03
2023-02-28T14:45:04.210Z,98008.31
2023-02-28T14:48:58.697Z,98009.59
2023-02-28T14:54:25.162Z,98018.31
2023-02-28T14:56:57.715Z,98014.56
2023-02-28T14:59:43.668Z,98021.41
2023-02-28T15:03:04.126Z,98018.13
2023-02-28T15:06:10.588Z,98014.03
2023-02-28T15:12:51.473Z,98025.59
2023-02-28T15:15:19.180Z,98018.31
2023-02-28T15:18:33.604Z,98016.53
2023-02-28T15:22:57.758Z,98016.06
2023-02-28T15:25:21.195Z,98019.09
2023-02-28T15:27:55.598Z,98020.03
2023-02-28T15:31:20.369Z,98016.97
2023-02-28T15:35:44.016Z,98018.16
2023-02-28T15:50:32.331Z,98023.09
2023-02-28T16:03:27.242Z,98027.97
2023-02-28T16:06:34.155Z,98041.34
2023-02-28T16:20:03.165Z,98028.50
2023-02-28T16:26:57.602Z,98032.91
2023-02-28T16:46:05.324Z,98065.88
2023-02-28T16:52:59.924Z,98055.06
2023-02-28T16:59:32.019Z,98055.91
2023-02-28T17:02:01.859Z,98045.44
2023-02-28T17:05:01.983Z,98050.66
2023-02-28T17:11:49.648Z,98045.81
2023-02-28T17:14:47.711Z,98049.38
2023-02-28T17:18:55.734Z,98052.75
2023-02-28T17:21:25.334Z,98054.41
2023-02-28T17:26:33.804Z,98053.09
2023-02-28T17:33:01.252Z,98057.69
2023-02-28T17:39:36.864Z,98061.41
2023-02-28T17:42:08.095Z,98056.19
2023-02-28T17:45:04.173Z,98055.13
2023-02-28T17:47:51.444Z,98063.94
2023-02-28T17:51:02.485Z,98057.69
2023-02-28T17:53:32.887Z,98056.25
2023-02-28T17:57:19.126Z,98063.19
2023-02-28T18:03:02.523Z,98067.56
2023-02-28T18:05:33.732Z,98068.59
2023-02-28T18:08:01.965Z,98065.78
2023-02-28T18:10:28.925Z,98065.22
2023-02-28T18:13:25.936Z,98068.88
2023-02-28T18:19:10.473Z,98058.84
2023-02-28T18:21:48.731Z,98060.38
2023-02-28T18:25:09.648Z,98057.56
2023-02-28T18:27:36.905Z,98050.47
2023-02-28T18:33:37.268Z,98045.25
2023-02-28T18:37:03.242Z,98050.94
2023-02-28T18:39:33.832Z,98051.13
2023-02-28T18:42:13.775Z,98044.13
2023-02-28T18:44:41.134Z,98039.00
2023-02-28T18:47:09.849Z,98045.25
2023-02-28T18:49:38.183Z,98048.69
2023-02-28T18:52:05.376Z,98041.69
2023-02-28T18:54:48.056Z,98043.00
2023-02-28T18:57:40.008Z,98043.19
2023-02-28T19:00:23.424Z,98041.50
2023-02-28T19:02:57.254Z,98038.16
2023-02-28T19:05:26.293Z,98031.16
2023-02-28T19:08:52.258Z,98029.19
2023-02-28T19:13:01.067Z,98026.84
2023-02-28T19:17:47.224Z,98029.75
2023-02-28T19:20:36.923Z,98018.16
2023-02-28T19:23:14.884Z,98029.66
2023-02-28T19:26:45.145Z,98031.22
2023-02-28T19:29:15.912Z,98019.09
2023-02-28T19:35:18.332Z,98029.56
2023-02-28T19:38:20.056Z,98022.47
2023-02-28T19:40:47.608Z,98029.66
2023-02-28T19:43:21.281Z,98033.13
2023-02-28T19:46:38.780Z,98032.34
2023-02-28T19:49:09.688Z,98036.47
2023-02-28T19:51:38.943Z,98031.16
2023-02-28T19:54:06.037Z,98031.06
2023-02-28T19:56:57.853Z,98034.59
2023-02-28T20:00:05.261Z,98037.50
2023-02-28T20:02:31.980Z,98037.75
2023-02-28T20:11:39.988Z,98035.13
2023-02-28T20:17:30.864Z,98038.50
2023-02-28T20:20:17.681Z,98041.38
2023-02-28T20:27:34.169Z,98037.19
2023-02-28T20:31:20.670Z,98038.00
2023-02-28T20:33:31.870Z,98031.78
2023-02-28T20:36:16.747Z,98035.03
2023-02-28T20:41:52.036Z,98033.28
2023-02-28T20:48:44.638Z,98030.09
2023-02-28T20:51:23.291Z,98029.16
2023-02-28T20:53:51.800Z,98030.28
2023-02-28T20:56:21.237Z,98031.53
2023-02-28T20:59:24.760Z,98025.72
2023-02-28T21:02:07.504Z,98026.50
2023-02-28T21:04:37.673Z,98030.28
2023-02-28T21:07:49.285Z,98032.16
2023-02-28T21:10:20.327Z,98018.78
2023-02-28T21:13:03.544Z,98024.94
2023-02-28T21:15:48.531Z,98032.88
2023-02-28T21:18:16.345Z,98024.84
2023-02-28T21:27:28.040Z,98020.50
2023-02-28T21:31:55.476Z,98016.28
2023-02-28T21:33:07.596Z,98016.56
2023-02-28T21:38:24.169Z,98012.34
2023-02-28T21:40:57.375Z,98022.34
2023-02-28T21:43:24.162Z,98016.16
2023-02-28T21:45:57.546Z,98022.06
2023-02-28T21:52:17.236Z,98014.31
2023-02-28T21:54:51.896Z,98014.41
2023-02-28T21:57:59.084Z,98011.44
2023-02-28T22:00:26.598Z,98013.28
2023-02-28T22:02:54.112Z,98017.59
2023-02-28T22:05:30.572Z,98009.28
2023-02-28T22:08:00.435Z,98013.72
2023-02-28T22:10:36.528Z,98015.25
2023-02-28T22:13:12.892Z,98013.38
2023-02-28T22:15:43.011Z,98015.00
2023-02-28T22:18:09.867Z,98020.03
2023-02-28T22:20:57.315Z,98022.53
2023-02-28T22:29:47.930Z,98032.00
2023-02-28T22:32:28.480Z,98034.09
2023-02-28T22:35:19.964Z,98036.72
2023-02-28T22:37:52.586Z,98040.28
2023-02-28T22:40:42.421Z,98039.41
2023-02-28T22:43:33.095Z,98036.91
2023-02-28T22:46:33.077Z,98034.63
2023-02-28T22:49:46.469Z,98041.47
2023-02-28T22:53:01.179Z,98029.50
2023-02-28T22:55:35.988Z,98035.41
2023-02-28T23:01:18.688Z,98037.84
2023-02-28T23:03:47.716Z,98028.31
2023-02-28T23:06:33.513Z,98036.22
2023-02-28T23:09:09.274Z,98031.00
2023-02-28T23:11:42.982Z,98021.41
2023-02-28T23:14:13.163Z,98028.97
2023-02-28T23:17:14.438Z,98029.41
2023-02-28T23:19:41.403Z,98032.59
2023-02-28T23:22:21.140Z,98021.56
2023-02-28T23:24:53.614Z,98017.13
2023-02-28T23:27:30.572Z,98022.44
2023-02-28T23:29:57.598Z,98015.06
2023-02-28T23:41:35.305Z,98014.13
2023-02-28T23:44:04.929Z,98008.78
2023-02-28T23:46:46.185Z,98002.06
2023-02-28T23:49:14.267Z,97994.13
2023-02-28T23:51:41.109Z,97997.69
2023-02-28T23:54:09.055Z,97994.22
2023-02-28T23:56:36.062Z,97993.97
2023-02-28T23:59:04.801Z,97977.72
